sensor_id;sensor_type;location;lat;lon;timestamp;temperature;humidity
13322;DHT22;6730;46.248;6.930;2023-07-24T00:00:57;24.00;85.80
13322;DHT22;6730;46.248;6.930;2023-07-24T00:03:23;24.10;85.80
13322;DHT22;6730;46.248;6.930;2023-07-24T00:05:49;24.00;86.30
13322;DHT22;6730;46.248;6.930;2023-07-24T00:08:14;23.90;86.10
13322;DHT22;6730;46.248;6.930;2023-07-24T00:10:40;23.90;86.20
13322;DHT22;6730;46.248;6.930;2023-07-24T00:13:06;23.90;86.30
13322;DHT22;6730;46.248;6.930;2023-07-24T00:15:31;23.90;86.00
13322;DHT22;6730;46.248;6.930;2023-07-24T00:17:57;23.90;86.00
13322;DHT22;6730;46.248;6.930;2023-07-24T00:20:23;23.80;86.10
13322;DHT22;6730;46.248;6.930;2023-07-24T00:22:50;23.60;86.40
13322;DHT22;6730;46.248;6.930;2023-07-24T00:25:15;23.70;86.50
13322;DHT22;6730;46.248;6.930;2023-07-24T00:27:41;23.60;86.50
13322;DHT22;6730;46.248;6.930;2023-07-24T00:30:07;23.70;86.40
13322;DHT22;6730;46.248;6.930;2023-07-24T00:32:33;23.60;86.90
13322;DHT22;6730;46.248;6.930;2023-07-24T00:34:58;23.50;87.00
13322;DHT22;6730;46.248;6.930;2023-07-24T00:37:24;23.70;86.70
13322;DHT22;6730;46.248;6.930;2023-07-24T00:39:50;23.60;86.80
13322;DHT22;6730;46.248;6.930;2023-07-24T00:42:16;23.60;87.00
13322;DHT22;6730;46.248;6.930;2023-07-24T00:44:41;23.50;87.40
13322;DHT22;6730;46.248;6.930;2023-07-24T00:47:07;23.50;87.60
13322;DHT22;6730;46.248;6.930;2023-07-24T00:49:33;23.30;88.00
13322;DHT22;6730;46.248;6.930;2023-07-24T00:51:59;23.20;88.60
13322;DHT22;6730;46.248;6.930;2023-07-24T00:54:27;23.30;87.70
13322;DHT22;6730;46.248;6.930;2023-07-24T00:56:55;23.50;87.40
13322;DHT22;6730;46.248;6.930;2023-07-24T00:59:21;23.60;87.00
13322;DHT22;6730;46.248;6.930;2023-07-24T01:01:47;23.50;87.50
13322;DHT22;6730;46.248;6.930;2023-07-24T01:04:14;23.50;87.80
13322;DHT22;6730;46.248;6.930;2023-07-24T01:06:40;23.40;87.90
13322;DHT22;6730;46.248;6.930;2023-07-24T01:09:06;23.30;87.90
13322;DHT22;6730;46.248;6.930;2023-07-24T01:12:10;23.20;87.70
13322;DHT22;6730;46.248;6.930;2023-07-24T01:14:55;23.30;87.80
13322;DHT22;6730;46.248;6.930;2023-07-24T01:17:24;23.40;87.60
13322;DHT22;6730;46.248;6.930;2023-07-24T01:19:58;23.50;87.80
13322;DHT22;6730;46.248;6.930;2023-07-24T01:27:42;23.20;88.30
13322;DHT22;6730;46.248;6.930;2023-07-24T01:30:09;23.00;88.30
13322;DHT22;6730;46.248;6.930;2023-07-24T01:32:35;23.10;88.20
13322;DHT22;6730;46.248;6.930;2023-07-24T01:35:00;23.20;88.60
13322;DHT22;6730;46.248;6.930;2023-07-24T01:37:27;23.20;88.90
13322;DHT22;6730;46.248;6.930;2023-07-24T01:39:53;23.20;88.90
13322;DHT22;6730;46.248;6.930;2023-07-24T01:42:21;23.20;89.20
13322;DHT22;6730;46.248;6.930;2023-07-24T01:44:54;23.00;89.60
13322;DHT22;6730;46.248;6.930;2023-07-24T01:47:21;23.00;89.60
13322;DHT22;6730;46.248;6.930;2023-07-24T01:49:47;23.30;88.70
13322;DHT22;6730;46.248;6.930;2023-07-24T01:52:12;23.30;89.00
13322;DHT22;6730;46.248;6.930;2023-07-24T01:54:38;23.20;88.60
13322;DHT22;6730;46.248;6.930;2023-07-24T01:57:04;23.10;88.80
13322;DHT22;6730;46.248;6.930;2023-07-24T01:59:30;23.10;88.70
13322;DHT22;6730;46.248;6.930;2023-07-24T02:01:56;23.20;89.50
13322;DHT22;6730;46.248;6.930;2023-07-24T02:04:21;23.30;89.10
13322;DHT22;6730;46.248;6.930;2023-07-24T02:06:51;23.50;88.40
13322;DHT22;6730;46.248;6.930;2023-07-24T02:09:20;23.50;88.50
13322;DHT22;6730;46.248;6.930;2023-07-24T02:11:46;23.40;88.80
13322;DHT22;6730;46.248;6.930;2023-07-24T02:14:13;23.20;89.00
13322;DHT22;6730;46.248;6.930;2023-07-24T02:16:39;23.10;89.30
13322;DHT22;6730;46.248;6.930;2023-07-24T02:19:05;23.00;88.80
13322;DHT22;6730;46.248;6.930;2023-07-24T02:21:31;23.00;88.60
13322;DHT22;6730;46.248;6.930;2023-07-24T02:23:56;22.90;89.10
13322;DHT22;6730;46.248;6.930;2023-07-24T02:26:22;23.00;89.20
13322;DHT22;6730;46.248;6.930;2023-07-24T02:28:48;23.20;89.40
13322;DHT22;6730;46.248;6.930;2023-07-24T02:31:13;23.50;88.40
13322;DHT22;6730;46.248;6.930;2023-07-24T02:33:39;23.60;88.20
13322;DHT22;6730;46.248;6.930;2023-07-24T02:36:04;23.80;88.60
13322;DHT22;6730;46.248;6.930;2023-07-24T02:38:30;23.90;88.00
13322;DHT22;6730;46.248;6.930;2023-07-24T02:40:56;23.90;87.80
13322;DHT22;6730;46.248;6.930;2023-07-24T02:43:22;23.90;87.60
13322;DHT22;6730;46.248;6.930;2023-07-24T02:45:47;23.90;87.50
13322;DHT22;6730;46.248;6.930;2023-07-24T02:48:13;23.80;87.60
13322;DHT22;6730;46.248;6.930;2023-07-24T02:50:39;23.70;87.70
13322;DHT22;6730;46.248;6.930;2023-07-24T02:53:04;23.70;87.10
13322;DHT22;6730;46.248;6.930;2023-07-24T02:55:30;23.70;87.50
13322;DHT22;6730;46.248;6.930;2023-07-24T02:57:56;23.80;87.90
13322;DHT22;6730;46.248;6.930;2023-07-24T03:00:22;23.70;88.80
13322;DHT22;6730;46.248;6.930;2023-07-24T03:02:47;22.80;90.20
13322;DHT22;6730;46.248;6.930;2023-07-24T03:05:13;22.40;90.70
13322;DHT22;6730;46.248;6.930;2023-07-24T03:07:39;22.30;91.50
13322;DHT22;6730;46.248;6.930;2023-07-24T03:10:05;21.90;92.50
13322;DHT22;6730;46.248;6.930;2023-07-24T03:12:30;21.80;94.90
13322;DHT22;6730;46.248;6.930;2023-07-24T03:14:56;21.70;96.40
13322;DHT22;6730;46.248;6.930;2023-07-24T03:17:22;21.90;96.20
13322;DHT22;6730;46.248;6.930;2023-07-24T03:19:49;22.00;97.30
13322;DHT22;6730;46.248;6.930;2023-07-24T03:22:15;22.00;99.90
13322;DHT22;6730;46.248;6.930;2023-07-24T03:24:40;20.80;99.90
13322;DHT22;6730;46.248;6.930;2023-07-24T03:27:06;20.10;99.90
13322;DHT22;6730;46.248;6.930;2023-07-24T03:29:32;19.90;99.90
13322;DHT22;6730;46.248;6.930;2023-07-24T03:31:58;19.40;99.90
13322;DHT22;6730;46.248;6.930;2023-07-24T03:34:23;19.00;99.90
13322;DHT22;6730;46.248;6.930;2023-07-24T03:36:49;18.70;99.90
13322;DHT22;6730;46.248;6.930;2023-07-24T03:39:15;18.50;99.90
13322;DHT22;6730;46.248;6.930;2023-07-24T03:41:42;18.40;99.90
13322;DHT22;6730;46.248;6.930;2023-07-24T03:44:08;18.40;99.90
13322;DHT22;6730;46.248;6.930;2023-07-24T03:46:40;18.70;99.90
13322;DHT22;6730;46.248;6.930;2023-07-24T03:49:05;18.90;99.90
13322;DHT22;6730;46.248;6.930;2023-07-24T03:51:31;18.70;99.90
13322;DHT22;6730;46.248;6.930;2023-07-24T03:53:58;18.80;99.90
13322;DHT22;6730;46.248;6.930;2023-07-24T03:56:24;18.80;99.90
13322;DHT22;6730;46.248;6.930;2023-07-24T03:58:56;19.30;99.90
13322;DHT22;6730;46.248;6.930;2023-07-24T04:01:25;19.50;99.90
13322;DHT22;6730;46.248;6.930;2023-07-24T04:03:51;19.70;99.90
13322;DHT22;6730;46.248;6.930;2023-07-24T04:06:17;19.90;99.90
13322;DHT22;6730;46.248;6.930;2023-07-24T04:08:43;20.00;99.90
13322;DHT22;6730;46.248;6.930;2023-07-24T04:11:08;20.00;99.90
13322;DHT22;6730;46.248;6.930;2023-07-24T04:13:34;20.00;99.90
13322;DHT22;6730;46.248;6.930;2023-07-24T04:16:00;20.10;99.90
13322;DHT22;6730;46.248;6.930;2023-07-24T04:18:25;20.10;99.90
13322;DHT22;6730;46.248;6.930;2023-07-24T04:20:51;20.10;99.90
13322;DHT22;6730;46.248;6.930;2023-07-24T04:23:16;20.10;99.90
13322;DHT22;6730;46.248;6.930;2023-07-24T04:25:42;20.00;99.90
13322;DHT22;6730;46.248;6.930;2023-07-24T04:28:08;19.90;99.90
13322;DHT22;6730;46.248;6.930;2023-07-24T04:30:33;19.80;99.90
13322;DHT22;6730;46.248;6.930;2023-07-24T04:32:59;19.80;99.90
13322;DHT22;6730;46.248;6.930;2023-07-24T04:35:26;19.60;99.90
13322;DHT22;6730;46.248;6.930;2023-07-24T04:37:52;19.80;99.90
13322;DHT22;6730;46.248;6.930;2023-07-24T04:40:18;20.10;99.90
13322;DHT22;6730;46.248;6.930;2023-07-24T04:42:43;19.90;99.90
13322;DHT22;6730;46.248;6.930;2023-07-24T04:45:09;19.70;99.90
13322;DHT22;6730;46.248;6.930;2023-07-24T04:47:35;19.80;99.90
13322;DHT22;6730;46.248;6.930;2023-07-24T04:50:03;20.20;99.90
13322;DHT22;6730;46.248;6.930;2023-07-24T04:52:29;20.50;99.90
13322;DHT22;6730;46.248;6.930;2023-07-24T04:54:55;20.70;99.90
13322;DHT22;6730;46.248;6.930;2023-07-24T04:57:20;20.70;99.90
13322;DHT22;6730;46.248;6.930;2023-07-24T04:59:46;20.70;99.90
13322;DHT22;6730;46.248;6.930;2023-07-24T05:02:12;20.50;99.90
13322;DHT22;6730;46.248;6.930;2023-07-24T05:04:37;20.20;99.90
13322;DHT22;6730;46.248;6.930;2023-07-24T05:07:03;20.10;99.90
13322;DHT22;6730;46.248;6.930;2023-07-24T05:09:29;20.10;99.90
13322;DHT22;6730;46.248;6.930;2023-07-24T05:11:54;19.90;99.90
13322;DHT22;6730;46.248;6.930;2023-07-24T05:14:20;19.80;99.90
13322;DHT22;6730;46.248;6.930;2023-07-24T05:16:46;19.70;99.90
13322;DHT22;6730;46.248;6.930;2023-07-24T05:19:11;20.10;99.90
13322;DHT22;6730;46.248;6.930;2023-07-24T05:21:37;20.30;99.90
13322;DHT22;6730;46.248;6.930;2023-07-24T05:24:02;20.70;99.90
13322;DHT22;6730;46.248;6.930;2023-07-24T05:26:28;20.90;99.90
13322;DHT22;6730;46.248;6.930;2023-07-24T05:28:54;21.00;99.90
13322;DHT22;6730;46.248;6.930;2023-07-24T05:31:19;20.60;99.90
13322;DHT22;6730;46.248;6.930;2023-07-24T05:33:45;20.30;99.90
13322;DHT22;6730;46.248;6.930;2023-07-24T05:36:11;20.00;99.90
13322;DHT22;6730;46.248;6.930;2023-07-24T05:38:36;19.70;99.90
13322;DHT22;6730;46.248;6.930;2023-07-24T05:41:03;19.90;99.90
13322;DHT22;6730;46.248;6.930;2023-07-24T05:43:29;19.90;99.90
13322;DHT22;6730;46.248;6.930;2023-07-24T05:45:56;19.70;99.90
13322;DHT22;6730;46.248;6.930;2023-07-24T05:48:22;19.10;99.90
13322;DHT22;6730;46.248;6.930;2023-07-24T05:50:48;18.50;99.90
13322;DHT22;6730;46.248;6.930;2023-07-24T05:53:14;18.60;99.90
13322;DHT22;6730;46.248;6.930;2023-07-24T05:55:40;18.60;99.90
13322;DHT22;6730;46.248;6.930;2023-07-24T05:58:06;18.70;99.90
13322;DHT22;6730;46.248;6.930;2023-07-24T06:00:32;18.70;99.90
13322;DHT22;6730;46.248;6.930;2023-07-24T06:02:57;19.10;99.90
13322;DHT22;6730;46.248;6.930;2023-07-24T06:05:23;19.40;99.90
13322;DHT22;6730;46.248;6.930;2023-07-24T06:07:48;19.50;99.90
13322;DHT22;6730;46.248;6.930;2023-07-24T06:10:14;19.60;99.90
13322;DHT22;6730;46.248;6.930;2023-07-24T06:12:41;19.60;99.90
13322;DHT22;6730;46.248;6.930;2023-07-24T06:15:07;19.70;99.90
13322;DHT22;6730;46.248;6.930;2023-07-24T06:17:32;19.50;99.90
13322;DHT22;6730;46.248;6.930;2023-07-24T06:19:58;19.30;99.90
13322;DHT22;6730;46.248;6.930;2023-07-24T06:22:24;19.30;99.90
13322;DHT22;6730;46.248;6.930;2023-07-24T06:24:50;19.50;99.90
13322;DHT22;6730;46.248;6.930;2023-07-24T06:27:16;19.60;99.90
13322;DHT22;6730;46.248;6.930;2023-07-24T06:29:41;19.80;99.90
13322;DHT22;6730;46.248;6.930;2023-07-24T06:32:07;20.20;99.90
13322;DHT22;6730;46.248;6.930;2023-07-24T06:34:34;20.10;99.90
13322;DHT22;6730;46.248;6.930;2023-07-24T06:36:59;20.00;99.90
13322;DHT22;6730;46.248;6.930;2023-07-24T06:39:25;20.10;99.90
13322;DHT22;6730;46.248;6.930;2023-07-24T06:41:52;19.90;99.90
13322;DHT22;6730;46.248;6.930;2023-07-24T06:44:18;19.80;99.90
13322;DHT22;6730;46.248;6.930;2023-07-24T06:46:43;19.90;99.90
13322;DHT22;6730;46.248;6.930;2023-07-24T06:49:09;19.90;99.90
13322;DHT22;6730;46.248;6.930;2023-07-24T06:51:36;20.00;99.90
13322;DHT22;6730;46.248;6.930;2023-07-24T06:54:02;19.80;99.90
13322;DHT22;6730;46.248;6.930;2023-07-24T06:56:28;19.40;99.90
13322;DHT22;6730;46.248;6.930;2023-07-24T06:58:54;19.20;99.90
13322;DHT22;6730;46.248;6.930;2023-07-24T07:01:19;19.30;99.90
13322;DHT22;6730;46.248;6.930;2023-07-24T07:03:45;19.50;99.90
13322;DHT22;6730;46.248;6.930;2023-07-24T07:06:10;19.80;99.90
13322;DHT22;6730;46.248;6.930;2023-07-24T07:08:37;19.80;99.90
13322;DHT22;6730;46.248;6.930;2023-07-24T07:11:03;19.70;99.90
13322;DHT22;6730;46.248;6.930;2023-07-24T07:13:28;19.80;99.90
13322;DHT22;6730;46.248;6.930;2023-07-24T07:15:54;20.00;99.90
13322;DHT22;6730;46.248;6.930;2023-07-24T07:18:20;20.40;99.90
13322;DHT22;6730;46.248;6.930;2023-07-24T07:20:47;20.30;99.90
13322;DHT22;6730;46.248;6.930;2023-07-24T07:23:13;20.20;99.90
13322;DHT22;6730;46.248;6.930;2023-07-24T07:25:38;20.40;99.90
13322;DHT22;6730;46.248;6.930;2023-07-24T07:28:06;20.80;99.90
13322;DHT22;6730;46.248;6.930;2023-07-24T07:30:31;21.00;99.90
13322;DHT22;6730;46.248;6.930;2023-07-24T07:32:57;21.40;99.90
13322;DHT22;6730;46.248;6.930;2023-07-24T07:35:23;22.10;99.90
13322;DHT22;6730;46.248;6.930;2023-07-24T07:37:48;22.40;99.90
13322;DHT22;6730;46.248;6.930;2023-07-24T07:40:14;21.60;99.90
13322;DHT22;6730;46.248;6.930;2023-07-24T07:42:40;21.50;99.90
13322;DHT22;6730;46.248;6.930;2023-07-24T07:45:06;21.70;99.90
13322;DHT22;6730;46.248;6.930;2023-07-24T07:47:31;21.90;99.90
13322;DHT22;6730;46.248;6.930;2023-07-24T07:49:57;22.20;99.90
13322;DHT22;6730;46.248;6.930;2023-07-24T07:52:23;22.40;99.90
13322;DHT22;6730;46.248;6.930;2023-07-24T07:54:49;22.50;99.90
13322;DHT22;6730;46.248;6.930;2023-07-24T07:57:15;22.40;99.90
13322;DHT22;6730;46.248;6.930;2023-07-24T07:59:41;22.60;99.90
13322;DHT22;6730;46.248;6.930;2023-07-24T08:02:07;22.90;99.90
13322;DHT22;6730;46.248;6.930;2023-07-24T08:04:33;23.00;99.90
13322;DHT22;6730;46.248;6.930;2023-07-24T08:06:59;22.60;99.90
13322;DHT22;6730;46.248;6.930;2023-07-24T08:09:24;22.00;99.90
13322;DHT22;6730;46.248;6.930;2023-07-24T08:11:51;21.80;99.90
13322;DHT22;6730;46.248;6.930;2023-07-24T08:14:17;21.20;99.90
13322;DHT22;6730;46.248;6.930;2023-07-24T08:16:43;21.20;99.90
13322;DHT22;6730;46.248;6.930;2023-07-24T08:19:09;21.20;99.90
13322;DHT22;6730;46.248;6.930;2023-07-24T08:21:34;20.60;99.90
13322;DHT22;6730;46.248;6.930;2023-07-24T08:24:01;20.10;99.90
13322;DHT22;6730;46.248;6.930;2023-07-24T08:26:27;19.90;99.90
13322;DHT22;6730;46.248;6.930;2023-07-24T08:28:53;20.20;99.90
13322;DHT22;6730;46.248;6.930;2023-07-24T08:31:19;20.70;99.90
13322;DHT22;6730;46.248;6.930;2023-07-24T08:33:45;21.10;99.90
13322;DHT22;6730;46.248;6.930;2023-07-24T08:36:10;21.00;99.90
13322;DHT22;6730;46.248;6.930;2023-07-24T08:38:40;21.20;99.90
13322;DHT22;6730;46.248;6.930;2023-07-24T08:41:13;21.40;99.90
13322;DHT22;6730;46.248;6.930;2023-07-24T08:43:41;21.50;99.90
13322;DHT22;6730;46.248;6.930;2023-07-24T08:46:08;21.60;99.90
13322;DHT22;6730;46.248;6.930;2023-07-24T08:48:35;21.20;99.90
13322;DHT22;6730;46.248;6.930;2023-07-24T08:51:11;21.20;99.90
13322;DHT22;6730;46.248;6.930;2023-07-24T08:53:39;21.70;99.90
13322;DHT22;6730;46.248;6.930;2023-07-24T08:56:06;22.20;99.90
13322;DHT22;6730;46.248;6.930;2023-07-24T08:58:33;22.50;99.90
13322;DHT22;6730;46.248;6.930;2023-07-24T09:01:00;22.90;99.90
13322;DHT22;6730;46.248;6.930;2023-07-24T09:03:27;22.20;99.90
13322;DHT22;6730;46.248;6.930;2023-07-24T09:05:53;21.70;99.90
13322;DHT22;6730;46.248;6.930;2023-07-24T09:08:36;20.90;99.90
13322;DHT22;6730;46.248;6.930;2023-07-24T09:11:03;20.50;99.90
13322;DHT22;6730;46.248;6.930;2023-07-24T09:13:30;20.80;99.90
13322;DHT22;6730;46.248;6.930;2023-07-24T09:15:56;21.30;99.90
13322;DHT22;6730;46.248;6.930;2023-07-24T09:18:22;21.50;99.90
13322;DHT22;6730;46.248;6.930;2023-07-24T09:20:48;21.60;99.90
13322;DHT22;6730;46.248;6.930;2023-07-24T09:23:15;21.90;99.90
13322;DHT22;6730;46.248;6.930;2023-07-24T09:25:42;22.00;99.90
13322;DHT22;6730;46.248;6.930;2023-07-24T09:28:13;22.10;99.90
13322;DHT22;6730;46.248;6.930;2023-07-24T09:30:39;21.90;99.90
13322;DHT22;6730;46.248;6.930;2023-07-24T09:33:06;21.90;99.90
13322;DHT22;6730;46.248;6.930;2023-07-24T09:35:32;22.40;99.90
13322;DHT22;6730;46.248;6.930;2023-07-24T09:38:05;22.00;99.90
13322;DHT22;6730;46.248;6.930;2023-07-24T09:40:45;21.90;99.90
13322;DHT22;6730;46.248;6.930;2023-07-24T09:43:29;22.00;99.90
13322;DHT22;6730;46.248;6.930;2023-07-24T09:45:56;21.80;99.90
13322;DHT22;6730;46.248;6.930;2023-07-24T09:48:24;21.70;99.90
13322;DHT22;6730;46.248;6.930;2023-07-24T09:50:55;20.70;99.90
13322;DHT22;6730;46.248;6.930;2023-07-24T09:53:36;19.80;99.90
13322;DHT22;6730;46.248;6.930;2023-07-24T09:56:05;19.50;99.90
13322;DHT22;6730;46.248;6.930;2023-07-24T09:58:38;19.90;99.90
13322;DHT22;6730;46.248;6.930;2023-07-24T10:01:08;20.30;99.90
13322;DHT22;6730;46.248;6.930;2023-07-24T10:03:37;20.60;99.90
13322;DHT22;6730;46.248;6.930;2023-07-24T10:06:03;20.50;99.90
13322;DHT22;6730;46.248;6.930;2023-07-24T10:08:30;20.50;99.90
13322;DHT22;6730;46.248;6.930;2023-07-24T10:10:58;20.60;99.90
13322;DHT22;6730;46.248;6.930;2023-07-24T10:13:26;20.40;99.90
13322;DHT22;6730;46.248;6.930;2023-07-24T10:15:53;20.50;99.90
13322;DHT22;6730;46.248;6.930;2023-07-24T10:18:28;20.50;99.90
13322;DHT22;6730;46.248;6.930;2023-07-24T10:21:06;20.90;99.90
13322;DHT22;6730;46.248;6.930;2023-07-24T10:23:40;21.20;99.90
13322;DHT22;6730;46.248;6.930;2023-07-24T10:26:07;21.60;99.90
13322;DHT22;6730;46.248;6.930;2023-07-24T10:28:38;21.50;99.90
13322;DHT22;6730;46.248;6.930;2023-07-24T10:33:46;20.90;99.90
13322;DHT22;6730;46.248;6.930;2023-07-24T10:36:12;20.80;99.90
13322;DHT22;6730;46.248;6.930;2023-07-24T10:38:43;20.60;99.90
13322;DHT22;6730;46.248;6.930;2023-07-24T10:41:10;20.40;99.90
13322;DHT22;6730;46.248;6.930;2023-07-24T10:43:47;20.50;99.90
13322;DHT22;6730;46.248;6.930;2023-07-24T10:46:15;20.00;99.90
13322;DHT22;6730;46.248;6.930;2023-07-24T10:48:46;20.10;99.90
13322;DHT22;6730;46.248;6.930;2023-07-24T10:51:12;20.20;99.90
13322;DHT22;6730;46.248;6.930;2023-07-24T10:53:45;20.60;99.90
13322;DHT22;6730;46.248;6.930;2023-07-24T10:56:12;21.10;99.90
13322;DHT22;6730;46.248;6.930;2023-07-24T10:58:37;20.90;99.90
13322;DHT22;6730;46.248;6.930;2023-07-24T11:01:04;20.80;99.90
13322;DHT22;6730;46.248;6.930;2023-07-24T11:03:30;21.30;99.90
13322;DHT22;6730;46.248;6.930;2023-07-24T11:05:57;22.00;99.90
13322;DHT22;6730;46.248;6.930;2023-07-24T11:08:23;22.80;99.90
13322;DHT22;6730;46.248;6.930;2023-07-24T11:10:51;22.60;99.90
13322;DHT22;6730;46.248;6.930;2023-07-24T11:13:28;22.60;99.90
13322;DHT22;6730;46.248;6.930;2023-07-24T11:15:54;22.70;99.90
13322;DHT22;6730;46.248;6.930;2023-07-24T11:18:21;23.10;99.90
13322;DHT22;6730;46.248;6.930;2023-07-24T11:20:52;23.20;99.90
13322;DHT22;6730;46.248;6.930;2023-07-24T11:23:19;22.90;99.90
13322;DHT22;6730;46.248;6.930;2023-07-24T11:25:45;22.90;99.90
13322;DHT22;6730;46.248;6.930;2023-07-24T11:28:13;23.30;99.90
13322;DHT22;6730;46.248;6.930;2023-07-24T11:30:39;23.30;99.90
13322;DHT22;6730;46.248;6.930;2023-07-24T11:33:07;23.80;99.90
13322;DHT22;6730;46.248;6.930;2023-07-24T11:35:34;23.90;99.90
13322;DHT22;6730;46.248;6.930;2023-07-24T11:38:01;24.10;99.90
13322;DHT22;6730;46.248;6.930;2023-07-24T11:40:43;24.20;99.90
13322;DHT22;6730;46.248;6.930;2023-07-24T11:43:23;24.40;99.90
13322;DHT22;6730;46.248;6.930;2023-07-24T11:45:50;23.00;99.90
13322;DHT22;6730;46.248;6.930;2023-07-24T11:48:20;22.90;99.90
13322;DHT22;6730;46.248;6.930;2023-07-24T11:50:48;23.00;99.90
13322;DHT22;6730;46.248;6.930;2023-07-24T11:53:23;23.10;99.90
13322;DHT22;6730;46.248;6.930;2023-07-24T11:55:52;23.20;99.90
13322;DHT22;6730;46.248;6.930;2023-07-24T11:58:18;23.60;99.90
13322;DHT22;6730;46.248;6.930;2023-07-24T12:00:49;24.40;99.90
13322;DHT22;6730;46.248;6.930;2023-07-24T12:03:24;25.00;99.90
13322;DHT22;6730;46.248;6.930;2023-07-24T12:05:50;25.20;99.90
13322;DHT22;6730;46.248;6.930;2023-07-24T12:08:16;24.20;99.90
13322;DHT22;6730;46.248;6.930;2023-07-24T12:10:43;23.50;99.90
13322;DHT22;6730;46.248;6.930;2023-07-24T12:13:09;23.00;99.90
13322;DHT22;6730;46.248;6.930;2023-07-24T12:15:35;22.90;99.90
13322;DHT22;6730;46.248;6.930;2023-07-24T12:18:04;22.80;99.90
13322;DHT22;6730;46.248;6.930;2023-07-24T12:20:30;22.50;99.90
13322;DHT22;6730;46.248;6.930;2023-07-24T12:22:56;22.30;99.90
13322;DHT22;6730;46.248;6.930;2023-07-24T12:25:22;22.70;99.90
13322;DHT22;6730;46.248;6.930;2023-07-24T12:27:48;22.90;99.90
13322;DHT22;6730;46.248;6.930;2023-07-24T12:30:14;22.60;99.90
13322;DHT22;6730;46.248;6.930;2023-07-24T12:32:40;22.30;99.90
13322;DHT22;6730;46.248;6.930;2023-07-24T12:35:07;22.40;99.90
13322;DHT22;6730;46.248;6.930;2023-07-24T12:37:33;22.60;99.90
13322;DHT22;6730;46.248;6.930;2023-07-24T12:39:59;22.90;99.90
13322;DHT22;6730;46.248;6.930;2023-07-24T12:42:24;22.60;99.90
13322;DHT22;6730;46.248;6.930;2023-07-24T12:44:50;22.20;99.90
13322;DHT22;6730;46.248;6.930;2023-07-24T12:47:16;22.10;99.90
13322;DHT22;6730;46.248;6.930;2023-07-24T12:49:41;22.10;99.90
13322;DHT22;6730;46.248;6.930;2023-07-24T12:52:07;22.10;99.90
13322;DHT22;6730;46.248;6.930;2023-07-24T12:54:33;22.20;99.90
13322;DHT22;6730;46.248;6.930;2023-07-24T12:56:59;22.80;99.90
13322;DHT22;6730;46.248;6.930;2023-07-24T12:59:25;23.50;99.90
13322;DHT22;6730;46.248;6.930;2023-07-24T13:01:51;23.70;99.90
13322;DHT22;6730;46.248;6.930;2023-07-24T13:04:16;24.00;99.90
13322;DHT22;6730;46.248;6.930;2023-07-24T13:06:42;24.20;99.90
13322;DHT22;6730;46.248;6.930;2023-07-24T13:09:08;23.90;99.90
13322;DHT22;6730;46.248;6.930;2023-07-24T13:11:33;24.00;99.90
13322;DHT22;6730;46.248;6.930;2023-07-24T13:13:59;23.60;99.90
13322;DHT22;6730;46.248;6.930;2023-07-24T13:16:25;23.60;99.90
13322;DHT22;6730;46.248;6.930;2023-07-24T13:18:50;23.40;99.90
13322;DHT22;6730;46.248;6.930;2023-07-24T13:21:16;23.00;99.90
13322;DHT22;6730;46.248;6.930;2023-07-24T13:23:42;22.70;99.90
13322;DHT22;6730;46.248;6.930;2023-07-24T13:26:08;22.80;99.90
13322;DHT22;6730;46.248;6.930;2023-07-24T13:28:38;23.10;99.90
13322;DHT22;6730;46.248;6.930;2023-07-24T13:31:15;23.10;99.90
13322;DHT22;6730;46.248;6.930;2023-07-24T13:33:41;23.20;99.90
13322;DHT22;6730;46.248;6.930;2023-07-24T13:36:07;23.30;99.90
13322;DHT22;6730;46.248;6.930;2023-07-24T13:38:33;23.20;99.90
13322;DHT22;6730;46.248;6.930;2023-07-24T13:40:59;23.10;99.90
13322;DHT22;6730;46.248;6.930;2023-07-24T13:43:24;23.00;99.90
13322;DHT22;6730;46.248;6.930;2023-07-24T13:45:50;22.90;99.90
13322;DHT22;6730;46.248;6.930;2023-07-24T13:48:16;22.50;99.90
13322;DHT22;6730;46.248;6.930;2023-07-24T13:50:41;22.20;99.90
13322;DHT22;6730;46.248;6.930;2023-07-24T13:53:07;21.60;99.90
13322;DHT22;6730;46.248;6.930;2023-07-24T13:55:33;21.40;99.90
13322;DHT22;6730;46.248;6.930;2023-07-24T13:57:59;21.40;99.90
13322;DHT22;6730;46.248;6.930;2023-07-24T14:00:25;21.50;99.90
13322;DHT22;6730;46.248;6.930;2023-07-24T14:02:51;21.60;99.90
13322;DHT22;6730;46.248;6.930;2023-07-24T14:05:17;21.60;99.90
13322;DHT22;6730;46.248;6.930;2023-07-24T14:07:42;21.70;99.90
13322;DHT22;6730;46.248;6.930;2023-07-24T14:10:09;21.90;99.90
13322;DHT22;6730;46.248;6.930;2023-07-24T14:12:35;21.80;99.90
13322;DHT22;6730;46.248;6.930;2023-07-24T14:15:01;21.80;99.90
13322;DHT22;6730;46.248;6.930;2023-07-24T14:17:27;21.90;99.90
13322;DHT22;6730;46.248;6.930;2023-07-24T14:19:53;21.10;99.90
13322;DHT22;6730;46.248;6.930;2023-07-24T14:22:19;21.10;99.90
13322;DHT22;6730;46.248;6.930;2023-07-24T14:24:45;21.40;99.90
13322;DHT22;6730;46.248;6.930;2023-07-24T14:27:13;21.50;99.90
13322;DHT22;6730;46.248;6.930;2023-07-24T14:29:39;21.00;99.90
13322;DHT22;6730;46.248;6.930;2023-07-24T14:32:05;20.20;99.90
13322;DHT22;6730;46.248;6.930;2023-07-24T14:34:31;19.70;99.90
13322;DHT22;6730;46.248;6.930;2023-07-24T14:36:57;19.60;99.90
13322;DHT22;6730;46.248;6.930;2023-07-24T14:39:25;19.80;99.90
13322;DHT22;6730;46.248;6.930;2023-07-24T14:41:51;20.10;99.90
13322;DHT22;6730;46.248;6.930;2023-07-24T14:44:17;20.60;99.90
13322;DHT22;6730;46.248;6.930;2023-07-24T14:46:42;20.80;99.90
13322;DHT22;6730;46.248;6.930;2023-07-24T14:49:08;20.20;99.90
13322;DHT22;6730;46.248;6.930;2023-07-24T14:51:33;19.70;99.90
13322;DHT22;6730;46.248;6.930;2023-07-24T14:53:59;19.50;99.90
13322;DHT22;6730;46.248;6.930;2023-07-24T14:56:25;19.50;99.90
13322;DHT22;6730;46.248;6.930;2023-07-24T14:58:50;19.90;99.90
13322;DHT22;6730;46.248;6.930;2023-07-24T15:01:16;20.20;99.90
13322;DHT22;6730;46.248;6.930;2023-07-24T15:03:42;20.20;99.90
13322;DHT22;6730;46.248;6.930;2023-07-24T15:06:07;20.30;99.90
13322;DHT22;6730;46.248;6.930;2023-07-24T15:08:34;20.30;99.90
13322;DHT22;6730;46.248;6.930;2023-07-24T15:11:00;19.80;99.90
13322;DHT22;6730;46.248;6.930;2023-07-24T15:13:25;19.70;99.90
13322;DHT22;6730;46.248;6.930;2023-07-24T15:15:51;19.50;99.90
13322;DHT22;6730;46.248;6.930;2023-07-24T15:18:17;19.60;99.90
13322;DHT22;6730;46.248;6.930;2023-07-24T15:20:42;20.00;99.90
13322;DHT22;6730;46.248;6.930;2023-07-24T15:23:08;20.30;99.90
13322;DHT22;6730;46.248;6.930;2023-07-24T15:25:34;20.20;99.90
13322;DHT22;6730;46.248;6.930;2023-07-24T15:28:00;20.60;99.90
13322;DHT22;6730;46.248;6.930;2023-07-24T15:30:25;20.90;99.90
13322;DHT22;6730;46.248;6.930;2023-07-24T15:32:51;20.90;99.90
13322;DHT22;6730;46.248;6.930;2023-07-24T15:35:17;21.40;99.90
13322;DHT22;6730;46.248;6.930;2023-07-24T15:37:42;21.50;99.90
13322;DHT22;6730;46.248;6.930;2023-07-24T15:40:09;21.40;99.90
13322;DHT22;6730;46.248;6.930;2023-07-24T15:42:35;21.10;99.90
13322;DHT22;6730;46.248;6.930;2023-07-24T15:45:01;20.90;99.90
13322;DHT22;6730;46.248;6.930;2023-07-24T15:47:26;20.90;99.90
13322;DHT22;6730;46.248;6.930;2023-07-24T15:49:52;20.90;99.90